sensor_id;sensor_type;location;lat;lon;timestamp;temperature;humidity
19172;DHT22;9718;52.200;21.052;2023-02-03T00:01:03;1.50;99.90
19172;DHT22;9718;52.200;21.052;2023-02-03T00:03:32;1.60;99.90
19172;DHT22;9718;52.200;21.052;2023-02-03T00:06:00;1.70;99.90
19172;DHT22;9718;52.200;21.052;2023-02-03T00:08:28;1.70;99.90
19172;DHT22;9718;52.200;21.052;2023-02-03T00:10:55;1.60;99.90
19172;DHT22;9718;52.200;21.052;2023-02-03T00:13:22;1.60;99.90
19172;DHT22;9718;52.200;21.052;2023-02-03T00:15:51;1.50;99.90
19172;DHT22;9718;52.200;21.052;2023-02-03T00:18:19;1.50;99.90
19172;DHT22;9718;52.200;21.052;2023-02-03T00:20:46;1.40;99.90
19172;DHT22;9718;52.200;21.052;2023-02-03T00:23:13;1.40;99.90
19172;DHT22;9718;52.200;21.052;2023-02-03T00:25:40;1.30;99.90
19172;DHT22;9718;52.200;21.052;2023-02-03T00:28:07;1.30;99.90
19172;DHT22;9718;52.200;21.052;2023-02-03T00:30:35;1.20;99.90
19172;DHT22;9718;52.200;21.052;2023-02-03T00:33:03;1.10;99.90
19172;DHT22;9718;52.200;21.052;2023-02-03T00:35:30;1.10;99.90
19172;DHT22;9718;52.200;21.052;2023-02-03T00:37:58;1.10;99.90
19172;DHT22;9718;52.200;21.052;2023-02-03T00:40:25;1.10;99.90
19172;DHT22;9718;52.200;21.052;2023-02-03T00:42:53;1.10;99.90
19172;DHT22;9718;52.200;21.052;2023-02-03T00:45:21;0.90;99.90
19172;DHT22;9718;52.200;21.052;2023-02-03T00:47:48;0.90;99.90
19172;DHT22;9718;52.200;21.052;2023-02-03T00:50:15;0.90;99.90
19172;DHT22;9718;52.200;21.052;2023-02-03T00:52:43;0.90;99.90
19172;DHT22;9718;52.200;21.052;2023-02-03T00:55:10;0.90;99.90
19172;DHT22;9718;52.200;21.052;2023-02-03T00:57:37;0.80;99.90
19172;DHT22;9718;52.200;21.052;2023-02-03T01:00:05;0.80;99.90
19172;DHT22;9718;52.200;21.052;2023-02-03T01:02:32;0.80;99.90
19172;DHT22;9718;52.200;21.052;2023-02-03T01:05:00;0.70;99.90
19172;DHT22;9718;52.200;21.052;2023-02-03T01:07:30;0.60;99.90
19172;DHT22;9718;52.200;21.052;2023-02-03T01:09:58;0.70;99.90
19172;DHT22;9718;52.200;21.052;2023-02-03T01:12:28;0.70;99.90
19172;DHT22;9718;52.200;21.052;2023-02-03T01:14:55;0.80;99.90
19172;DHT22;9718;52.200;21.052;2023-02-03T01:17:23;0.70;99.90
19172;DHT22;9718;52.200;21.052;2023-02-03T01:19:51;0.70;99.90
19172;DHT22;9718;52.200;21.052;2023-02-03T01:22:18;0.80;99.90
19172;DHT22;9718;52.200;21.052;2023-02-03T01:24:45;0.70;99.90
19172;DHT22;9718;52.200;21.052;2023-02-03T01:27:13;0.90;99.90
19172;DHT22;9718;52.200;21.052;2023-02-03T01:29:40;1.10;99.90
19172;DHT22;9718;52.200;21.052;2023-02-03T01:32:07;1.00;99.90
19172;DHT22;9718;52.200;21.052;2023-02-03T01:34:34;1.00;99.90
19172;DHT22;9718;52.200;21.052;2023-02-03T01:37:01;1.10;99.90
19172;DHT22;9718;52.200;21.052;2023-02-03T01:39:28;1.00;99.90
19172;DHT22;9718;52.200;21.052;2023-02-03T01:41:55;1.10;99.90
19172;DHT22;9718;52.200;21.052;2023-02-03T01:47:02;1.30;99.90
19172;DHT22;9718;52.200;21.052;2023-02-03T01:49:34;1.20;99.90
19172;DHT22;9718;52.200;21.052;2023-02-03T01:52:03;1.20;99.90
19172;DHT22;9718;52.200;21.052;2023-02-03T01:54:37;1.20;99.90
19172;DHT22;9718;52.200;21.052;2023-02-03T01:57:14;1.20;99.90
19172;DHT22;9718;52.200;21.052;2023-02-03T01:59:43;1.10;99.90
19172;DHT22;9718;52.200;21.052;2023-02-03T02:02:11;1.10;99.90
19172;DHT22;9718;52.200;21.052;2023-02-03T02:07:33;1.00;99.90
19172;DHT22;9718;52.200;21.052;2023-02-03T02:10:01;1.10;99.90
19172;DHT22;9718;52.200;21.052;2023-02-03T02:12:29;1.00;99.90
19172;DHT22;9718;52.200;21.052;2023-02-03T02:14:56;1.00;99.90
19172;DHT22;9718;52.200;21.052;2023-02-03T02:17:53;1.00;99.90
19172;DHT22;9718;52.200;21.052;2023-02-03T02:37:06;1.00;99.90
19172;DHT22;9718;52.200;21.052;2023-02-03T02:42:39;1.00;99.90
19172;DHT22;9718;52.200;21.052;2023-02-03T02:45:19;1.00;99.90
19172;DHT22;9718;52.200;21.052;2023-02-03T02:47:49;0.90;99.90
19172;DHT22;9718;52.200;21.052;2023-02-03T02:50:23;0.90;99.90
19172;DHT22;9718;52.200;21.052;2023-02-03T02:52:53;0.80;99.90
19172;DHT22;9718;52.200;21.052;2023-02-03T02:55:24;0.80;99.90
19172;DHT22;9718;52.200;21.052;2023-02-03T02:57:56;0.80;99.90
19172;DHT22;9718;52.200;21.052;2023-02-03T03:00:24;0.80;99.90
19172;DHT22;9718;52.200;21.052;2023-02-03T03:02:51;0.70;99.90
19172;DHT22;9718;52.200;21.052;2023-02-03T03:05:19;0.70;99.90
19172;DHT22;9718;52.200;21.052;2023-02-03T03:07:54;0.70;99.90
19172;DHT22;9718;52.200;21.052;2023-02-03T03:10:24;0.60;99.90
19172;DHT22;9718;52.200;21.052;2023-02-03T03:12:56;0.50;99.90
19172;DHT22;9718;52.200;21.052;2023-02-03T03:15:28;0.30;99.90
19172;DHT22;9718;52.200;21.052;2023-02-03T03:18:17;0.30;99.90
19172;DHT22;9718;52.200;21.052;2023-02-03T03:20:46;0.30;99.90
19172;DHT22;9718;52.200;21.052;2023-02-03T03:23:27;0.20;99.90
19172;DHT22;9718;52.200;21.052;2023-02-03T03:26:04;0.10;99.90
19172;DHT22;9718;52.200;21.052;2023-02-03T03:28:48;0.00;99.90
19172;DHT22;9718;52.200;21.052;2023-02-03T03:31:19;-0.10;99.90
19172;DHT22;9718;52.200;21.052;2023-02-03T03:33:47;-0.20;99.90
19172;DHT22;9718;52.200;21.052;2023-02-03T03:36:32;-0.30;99.90
19172;DHT22;9718;52.200;21.052;2023-02-03T03:42:01;-0.30;99.90
19172;DHT22;9718;52.200;21.052;2023-02-03T03:44:38;-0.30;99.90
19172;DHT22;9718;52.200;21.052;2023-02-03T03:47:17;-0.40;99.90
19172;DHT22;9718;52.200;21.052;2023-02-03T03:49:46;-0.40;99.90
19172;DHT22;9718;52.200;21.052;2023-02-03T03:52:19;-0.50;99.90
19172;DHT22;9718;52.200;21.052;2023-02-03T03:54:47;-0.50;99.90
19172;DHT22;9718;52.200;21.052;2023-02-03T03:57:24;-0.30;99.90
19172;DHT22;9718;52.200;21.052;2023-02-03T03:59:52;-0.40;99.90
19172;DHT22;9718;52.200;21.052;2023-02-03T04:02:21;-0.40;99.90
19172;DHT22;9718;52.200;21.052;2023-02-03T04:04:49;-0.50;99.90
19172;DHT22;9718;52.200;21.052;2023-02-03T04:07:17;-0.60;99.90
19172;DHT22;9718;52.200;21.052;2023-02-03T04:09:46;-0.60;99.90
19172;DHT22;9718;52.200;21.052;2023-02-03T04:12:22;-0.60;99.90
19172;DHT22;9718;52.200;21.052;2023-02-03T04:14:49;-0.70;99.90
19172;DHT22;9718;52.200;21.052;2023-02-03T04:17:16;-0.70;99.90
19172;DHT22;9718;52.200;21.052;2023-02-03T04:19:47;-0.70;99.90
19172;DHT22;9718;52.200;21.052;2023-02-03T04:22:14;-0.70;99.90
19172;DHT22;9718;52.200;21.052;2023-02-03T04:24:41;-0.70;99.90
19172;DHT22;9718;52.200;21.052;2023-02-03T04:27:09;-0.70;99.90
19172;DHT22;9718;52.200;21.052;2023-02-03T04:29:36;-0.80;99.90
19172;DHT22;9718;52.200;21.052;2023-02-03T04:32:03;-0.80;99.90
19172;DHT22;9718;52.200;21.052;2023-02-03T04:34:30;-0.80;99.90
19172;DHT22;9718;52.200;21.052;2023-02-03T04:36:57;-0.90;99.90
19172;DHT22;9718;52.200;21.052;2023-02-03T04:39:24;-0.80;99.90
19172;DHT22;9718;52.200;21.052;2023-02-03T04:41:52;-0.90;99.90
19172;DHT22;9718;52.200;21.052;2023-02-03T04:44:19;-0.90;99.90
19172;DHT22;9718;52.200;21.052;2023-02-03T04:46:46;-0.90;99.90
19172;DHT22;9718;52.200;21.052;2023-02-03T04:49:13;-0.90;99.90
19172;DHT22;9718;52.200;21.052;2023-02-03T04:51:40;-0.90;99.90
19172;DHT22;9718;52.200;21.052;2023-02-03T04:54:10;-1.00;99.90
19172;DHT22;9718;52.200;21.052;2023-02-03T04:56:37;-1.00;99.90
19172;DHT22;9718;52.200;21.052;2023-02-03T04:59:04;-1.00;99.90
19172;DHT22;9718;52.200;21.052;2023-02-03T05:01:31;-1.00;99.90
19172;DHT22;9718;52.200;21.052;2023-02-03T05:03:58;-1.00;99.90
19172;DHT22;9718;52.200;21.052;2023-02-03T05:06:27;-1.10;99.90
19172;DHT22;9718;52.200;21.052;2023-02-03T05:08:55;-1.10;99.90
19172;DHT22;9718;52.200;21.052;2023-02-03T05:11:22;-1.10;99.90
19172;DHT22;9718;52.200;21.052;2023-02-03T05:13:50;-1.10;99.90
19172;DHT22;9718;52.200;21.052;2023-02-03T05:16:17;-1.00;99.90
19172;DHT22;9718;52.200;21.052;2023-02-03T05:18:44;-1.10;99.90
19172;DHT22;9718;52.200;21.052;2023-02-03T05:21:12;-1.10;99.90
19172;DHT22;9718;52.200;21.052;2023-02-03T05:23:39;-1.10;99.90
19172;DHT22;9718;52.200;21.052;2023-02-03T05:26:06;-1.00;99.90
19172;DHT22;9718;52.200;21.052;2023-02-03T05:28:33;-1.00;99.90
19172;DHT22;9718;52.200;21.052;2023-02-03T05:31:01;-0.90;99.90
19172;DHT22;9718;52.200;21.052;2023-02-03T05:33:29;-0.90;99.90
19172;DHT22;9718;52.200;21.052;2023-02-03T05:35:56;-0.90;99.90
19172;DHT22;9718;52.200;21.052;2023-02-03T05:38:23;-0.90;99.90
19172;DHT22;9718;52.200;21.052;2023-02-03T05:40:51;-0.90;99.90
19172;DHT22;9718;52.200;21.052;2023-02-03T05:43:37;-1.00;99.90
19172;DHT22;9718;52.200;21.052;2023-02-03T05:46:05;-1.00;99.90
19172;DHT22;9718;52.200;21.052;2023-02-03T05:48:33;-1.10;99.90
19172;DHT22;9718;52.200;21.052;2023-02-03T05:51:01;-1.10;99.90
19172;DHT22;9718;52.200;21.052;2023-02-03T05:53:28;-1.10;99.90
19172;DHT22;9718;52.200;21.052;2023-02-03T05:55:55;-1.10;99.90
19172;DHT22;9718;52.200;21.052;2023-02-03T05:58:22;-1.10;99.90
19172;DHT22;9718;52.200;21.052;2023-02-03T06:00:50;-1.10;99.90
19172;DHT22;9718;52.200;21.052;2023-02-03T06:03:17;-1.10;99.90
19172;DHT22;9718;52.200;21.052;2023-02-03T06:05:44;-1.10;99.90
19172;DHT22;9718;52.200;21.052;2023-02-03T06:08:11;-1.10;99.90
19172;DHT22;9718;52.200;21.052;2023-02-03T06:10:39;-1.10;99.90
19172;DHT22;9718;52.200;21.052;2023-02-03T06:13:10;-1.10;99.90
19172;DHT22;9718;52.200;21.052;2023-02-03T06:15:39;-1.00;99.90
19172;DHT22;9718;52.200;21.052;2023-02-03T06:18:06;-1.10;99.90
19172;DHT22;9718;52.200;21.052;2023-02-03T06:20:33;-1.00;99.90
19172;DHT22;9718;52.200;21.052;2023-02-03T06:23:01;-1.00;99.90
19172;DHT22;9718;52.200;21.052;2023-02-03T06:25:28;-1.00;99.90
19172;DHT22;9718;52.200;21.052;2023-02-03T06:27:58;-1.00;99.90
19172;DHT22;9718;52.200;21.052;2023-02-03T06:30:25;-1.00;99.90
19172;DHT22;9718;52.200;21.052;2023-02-03T06:32:53;-1.00;99.90
19172;DHT22;9718;52.200;21.052;2023-02-03T06:35:21;-0.90;99.90
19172;DHT22;9718;52.200;21.052;2023-02-03T06:37:48;-0.90;99.90
19172;DHT22;9718;52.200;21.052;2023-02-03T06:40:15;-0.90;99.90
19172;DHT22;9718;52.200;21.052;2023-02-03T06:42:46;-0.90;99.90
19172;DHT22;9718;52.200;21.052;2023-02-03T06:45:14;-0.90;99.90
19172;DHT22;9718;52.200;21.052;2023-02-03T06:47:42;-0.80;99.90
19172;DHT22;9718;52.200;21.052;2023-02-03T06:50:12;-0.80;99.90
19172;DHT22;9718;52.200;21.052;2023-02-03T06:52:39;-0.80;99.90
19172;DHT22;9718;52.200;21.052;2023-02-03T06:55:06;-0.80;99.90
19172;DHT22;9718;52.200;21.052;2023-02-03T06:57:34;-0.80;99.90
19172;DHT22;9718;52.200;21.052;2023-02-03T07:00:02;-0.80;99.90
19172;DHT22;9718;52.200;21.052;2023-02-03T07:02:29;-0.70;99.90
19172;DHT22;9718;52.200;21.052;2023-02-03T07:04:56;-0.60;99.90
19172;DHT22;9718;52.200;21.052;2023-02-03T07:07:23;-0.60;99.90
19172;DHT22;9718;52.200;21.052;2023-02-03T07:09:50;-0.50;99.90
19172;DHT22;9718;52.200;21.052;2023-02-03T07:12:17;-0.40;99.90
19172;DHT22;9718;52.200;21.052;2023-02-03T07:14:44;-0.40;99.90
19172;DHT22;9718;52.200;21.052;2023-02-03T07:17:11;-0.30;99.90
19172;DHT22;9718;52.200;21.052;2023-02-03T07:19:39;-0.20;99.90
19172;DHT22;9718;52.200;21.052;2023-02-03T07:22:06;-0.20;99.90
19172;DHT22;9718;52.200;21.052;2023-02-03T07:24:33;-0.20;99.90
19172;DHT22;9718;52.200;21.052;2023-02-03T07:27:00;-0.10;99.90
19172;DHT22;9718;52.200;21.052;2023-02-03T07:29:30;0.00;99.90
19172;DHT22;9718;52.200;21.052;2023-02-03T07:31:57;0.00;99.90
19172;DHT22;9718;52.200;21.052;2023-02-03T07:34:25;0.10;99.90
19172;DHT22;9718;52.200;21.052;2023-02-03T07:36:52;0.20;99.90
19172;DHT22;9718;52.200;21.052;2023-02-03T07:39:19;0.20;99.90
19172;DHT22;9718;52.200;21.052;2023-02-03T07:41:46;0.30;99.90
19172;DHT22;9718;52.200;21.052;2023-02-03T07:44:13;0.30;99.90
19172;DHT22;9718;52.200;21.052;2023-02-03T07:46:40;0.40;99.90
19172;DHT22;9718;52.200;21.052;2023-02-03T07:49:11;0.60;99.90
19172;DHT22;9718;52.200;21.052;2023-02-03T07:51:39;0.80;99.90
19172;DHT22;9718;52.200;21.052;2023-02-03T07:54:06;0.80;99.90
19172;DHT22;9718;52.200;21.052;2023-02-03T07:56:33;0.90;99.90
19172;DHT22;9718;52.200;21.052;2023-02-03T07:59:01;1.10;99.90
19172;DHT22;9718;52.200;21.052;2023-02-03T08:01:28;1.20;99.90
19172;DHT22;9718;52.200;21.052;2023-02-03T08:03:57;1.30;99.90
19172;DHT22;9718;52.200;21.052;2023-02-03T08:06:24;1.20;99.90
19172;DHT22;9718;52.200;21.052;2023-02-03T08:08:51;1.30;99.90
19172;DHT22;9718;52.200;21.052;2023-02-03T08:11:20;1.50;99.90
19172;DHT22;9718;52.200;21.052;2023-02-03T08:13:47;1.40;99.90
19172;DHT22;9718;52.200;21.052;2023-02-03T08:16:14;1.50;99.90
19172;DHT22;9718;52.200;21.052;2023-02-03T08:18:41;1.50;99.90
19172;DHT22;9718;52.200;21.052;2023-02-03T08:21:08;1.40;99.90
19172;DHT22;9718;52.200;21.052;2023-02-03T08:23:35;1.40;99.90
19172;DHT22;9718;52.200;21.052;2023-02-03T08:26:02;1.40;99.90
19172;DHT22;9718;52.200;21.052;2023-02-03T08:28:30;1.40;99.90
19172;DHT22;9718;52.200;21.052;2023-02-03T08:30:57;1.50;99.90
19172;DHT22;9718;52.200;21.052;2023-02-03T08:33:25;1.50;99.90
19172;DHT22;9718;52.200;21.052;2023-02-03T08:35:52;1.40;99.90
19172;DHT22;9718;52.200;21.052;2023-02-03T08:38:19;1.50;99.90
19172;DHT22;9718;52.200;21.052;2023-02-03T08:40:47;1.40;99.90
19172;DHT22;9718;52.200;21.052;2023-02-03T08:43:14;1.40;99.90
19172;DHT22;9718;52.200;21.052;2023-02-03T08:45:42;1.60;99.90
19172;DHT22;9718;52.200;21.052;2023-02-03T08:48:09;1.60;99.90
19172;DHT22;9718;52.200;21.052;2023-02-03T08:50:36;1.60;99.90
19172;DHT22;9718;52.200;21.052;2023-02-03T08:53:03;1.60;99.90
19172;DHT22;9718;52.200;21.052;2023-02-03T08:55:30;1.50;99.90
19172;DHT22;9718;52.200;21.052;2023-02-03T08:57:57;1.60;99.90
19172;DHT22;9718;52.200;21.052;2023-02-03T09:00:25;1.70;99.90
19172;DHT22;9718;52.200;21.052;2023-02-03T09:02:53;1.70;99.90
19172;DHT22;9718;52.200;21.052;2023-02-03T09:05:20;1.70;99.90
19172;DHT22;9718;52.200;21.052;2023-02-03T09:07:47;1.70;99.90
19172;DHT22;9718;52.200;21.052;2023-02-03T09:10:15;1.60;99.90
19172;DHT22;9718;52.200;21.052;2023-02-03T09:12:42;1.60;99.90
19172;DHT22;9718;52.200;21.052;2023-02-03T09:15:09;1.70;99.90
19172;DHT22;9718;52.200;21.052;2023-02-03T09:17:36;1.70;99.90
19172;DHT22;9718;52.200;21.052;2023-02-03T09:20:04;1.90;99.90
19172;DHT22;9718;52.200;21.052;2023-02-03T09:22:31;2.00;99.90
19172;DHT22;9718;52.200;21.052;2023-02-03T09:24:59;2.20;99.90
19172;DHT22;9718;52.200;21.052;2023-02-03T09:27:26;2.20;99.90
19172;DHT22;9718;52.200;21.052;2023-02-03T09:29:53;2.10;99.90
19172;DHT22;9718;52.200;21.052;2023-02-03T09:32:20;2.00;99.90
19172;DHT22;9718;52.200;21.052;2023-02-03T09:34:47;2.00;99.90
19172;DHT22;9718;52.200;21.052;2023-02-03T09:37:14;2.00;99.90
19172;DHT22;9718;52.200;21.052;2023-02-03T09:39:41;2.00;99.90
19172;DHT22;9718;52.200;21.052;2023-02-03T09:45:04;1.90;99.90
19172;DHT22;9718;52.200;21.052;2023-02-03T09:47:38;2.00;99.90
19172;DHT22;9718;52.200;21.052;2023-02-03T09:50:17;2.00;99.90
19172;DHT22;9718;52.200;21.052;2023-02-03T09:52:46;2.10;99.90
19172;DHT22;9718;52.200;21.052;2023-02-03T09:55:33;2.20;99.90
19172;DHT22;9718;52.200;21.052;2023-02-03T09:58:11;2.30;99.90
19172;DHT22;9718;52.200;21.052;2023-02-03T10:00:42;2.50;99.90
19172;DHT22;9718;52.200;21.052;2023-02-03T10:16:58;2.70;99.90
19172;DHT22;9718;52.200;21.052;2023-02-03T10:19:45;2.60;99.90
19172;DHT22;9718;52.200;21.052;2023-02-03T10:22:17;3.00;99.90
19172;DHT22;9718;52.200;21.052;2023-02-03T10:27:20;3.10;99.90
19172;DHT22;9718;52.200;21.052;2023-02-03T10:30:18;3.20;99.90
19172;DHT22;9718;52.200;21.052;2023-02-03T10:32:49;3.30;99.90
19172;DHT22;9718;52.200;21.052;2023-02-03T10:35:21;3.40;99.90
19172;DHT22;9718;52.200;21.052;2023-02-03T10:37:54;3.20;99.90
19172;DHT22;9718;52.200;21.052;2023-02-03T10:40:25;3.20;99.90
19172;DHT22;9718;52.200;21.052;2023-02-03T10:42:53;2.90;99.90
19172;DHT22;9718;52.200;21.052;2023-02-03T10:45:39;2.80;99.90
19172;DHT22;9718;52.200;21.052;2023-02-03T10:48:12;2.70;99.90
19172;DHT22;9718;52.200;21.052;2023-02-03T10:50:45;2.60;99.90
19172;DHT22;9718;52.200;21.052;2023-02-03T10:53:23;2.80;99.90
19172;DHT22;9718;52.200;21.052;2023-02-03T10:56:09;3.00;99.90
19172;DHT22;9718;52.200;21.052;2023-02-03T10:58:38;3.00;99.90
19172;DHT22;9718;52.200;21.052;2023-02-03T11:01:14;3.10;99.90
19172;DHT22;9718;52.200;21.052;2023-02-03T11:03:57;3.10;99.90
19172;DHT22;9718;52.200;21.052;2023-02-03T11:07:04;2.90;99.90
19172;DHT22;9718;52.200;21.052;2023-02-03T11:13:24;2.70;99.90
19172;DHT22;9718;52.200;21.052;2023-02-03T11:16:26;2.30;99.90
19172;DHT22;9718;52.200;21.052;2023-02-03T11:19:56;2.40;99.90
19172;DHT22;9718;52.200;21.052;2023-02-03T11:22:39;2.60;99.90
19172;DHT22;9718;52.200;21.052;2023-02-03T11:25:46;2.70;99.90
19172;DHT22;9718;52.200;21.052;2023-02-03T11:28:50;2.50;99.90
19172;DHT22;9718;52.200;21.052;2023-02-03T11:31:41;2.40;99.90
19172;DHT22;9718;52.200;21.052;2023-02-03T11:34:24;2.40;99.90
19172;DHT22;9718;52.200;21.052;2023-02-03T11:46:12;2.30;99.90
19172;DHT22;9718;52.200;21.052;2023-02-03T12:03:43;2.40;99.90
19172;DHT22;9718;52.200;21.052;2023-02-03T12:06:59;2.40;99.90
19172;DHT22;9718;52.200;21.052;2023-02-03T12:16:09;2.40;99.90
19172;DHT22;9718;52.200;21.052;2023-02-03T12:19:29;2.40;99.90
19172;DHT22;9718;52.200;21.052;2023-02-03T12:25:06;2.50;99.90
19172;DHT22;9718;52.200;21.052;2023-02-03T12:34:35;2.60;99.90
19172;DHT22;9718;52.200;21.052;2023-02-03T12:37:57;2.50;99.90
19172;DHT22;9718;52.200;21.052;2023-02-03T12:41:10;2.30;99.90
19172;DHT22;9718;52.200;21.052;2023-02-03T12:44:12;2.30;99.90
19172;DHT22;9718;52.200;21.052;2023-02-03T12:50:13;2.30;99.90
19172;DHT22;9718;52.200;21.052;2023-02-03T12:53:46;2.30;99.90
19172;DHT22;9718;52.200;21.052;2023-02-03T12:56:17;2.40;99.90
19172;DHT22;9718;52.200;21.052;2023-02-03T12:58:59;2.40;99.90
19172;DHT22;9718;52.200;21.052;2023-02-03T13:01:44;2.30;99.90
19172;DHT22;9718;52.200;21.052;2023-02-03T13:07:22;2.30;99.90
19172;DHT22;9718;52.200;21.052;2023-02-03T13:09:58;2.20;99.90
19172;DHT22;9718;52.200;21.052;2023-02-03T13:15:29;2.20;99.90
19172;DHT22;9718;52.200;21.052;2023-02-03T13:20:45;2.10;99.90
19172;DHT22;9718;52.200;21.052;2023-02-03T13:23:15;2.10;99.90
19172;DHT22;9718;52.200;21.052;2023-02-03T13:32:00;1.90;99.90
19172;DHT22;9718;52.200;21.052;2023-02-03T13:43:39;1.40;99.90
19172;DHT22;9718;52.200;21.052;2023-02-03T13:46:31;1.30;99.90
19172;DHT22;9718;52.200;21.052;2023-02-03T13:49:01;1.20;99.90
19172;DHT22;9718;52.200;21.052;2023-02-03T13:51:32;1.10;99.90
19172;DHT22;9718;52.200;21.052;2023-02-03T13:54:06;1.10;99.90
19172;DHT22;9718;52.200;21.052;2023-02-03T13:56:34;1.10;99.90
19172;DHT22;9718;52.200;21.052;2023-02-03T13:59:18;1.00;99.90
19172;DHT22;9718;52.200;21.052;2023-02-03T14:02:28;0.90;99.90
19172;DHT22;9718;52.200;21.052;2023-02-03T14:04:57;0.80;99.90
19172;DHT22;9718;52.200;21.052;2023-02-03T14:07:36;0.70;99.90
19172;DHT22;9718;52.200;21.052;2023-02-03T14:15:26;0.60;99.90
19172;DHT22;9718;52.200;21.052;2023-02-03T14:18:29;0.60;99.90
19172;DHT22;9718;52.200;21.052;2023-02-03T14:21:18;0.70;99.90
19172;DHT22;9718;52.200;21.052;2023-02-03T14:24:04;0.60;99.90
19172;DHT22;9718;52.200;21.052;2023-02-03T14:26:42;0.60;99.90
19172;DHT22;9718;52.200;21.052;2023-02-03T14:29:31;0.50;99.90
19172;DHT22;9718;52.200;21.052;2023-02-03T14:32:01;0.60;99.90
19172;DHT22;9718;52.200;21.052;2023-02-03T14:34:42;0.50;99.90
19172;DHT22;9718;52.200;21.052;2023-02-03T14:37:23;0.50;99.90
19172;DHT22;9718;52.200;21.052;2023-02-03T15:04:37;0.40;99.90
19172;DHT22;9718;52.200;21.052;2023-02-03T15:07:04;0.30;99.90
19172;DHT22;9718;52.200;21.052;2023-02-03T15:09:44;0.30;99.90
19172;DHT22;9718;52.200;21.052;2023-02-03T15:12:16;0.40;99.90
19172;DHT22;9718;52.200;21.052;2023-02-03T15:14:44;0.40;99.90
19172;DHT22;9718;52.200;21.052;2023-02-03T15:17:21;0.40;99.90
19172;DHT22;9718;52.200;21.052;2023-02-03T15:19:49;0.30;99.90
19172;DHT22;9718;52.200;21.052;2023-02-03T15:22:28;0.30;99.90
19172;DHT22;9718;52.200;21.052;2023-02-03T15:25:01;0.40;99.90
19172;DHT22;9718;52.200;21.052;2023-02-03T15:27:33;0.40;99.90
19172;DHT22;9718;52.200;21.052;2023-02-03T15:30:18;0.30;99.90
19172;DHT22;9718;52.200;21.052;2023-02-03T15:35:58;0.30;99.90
19172;DHT22;9718;52.200;21.052;2023-02-03T15:38:40;0.40;99.90
19172;DHT22;9718;52.200;21.052;2023-02-03T15:41:17;0.30;99.90
19172;DHT22;9718;52.200;21.052;2023-02-03T15:43:49;0.30;99.90
19172;DHT22;9718;52.200;21.052;2023-02-03T15:46:27;0.20;99.90
19172;DHT22;9718;52.200;21.052;2023-02-03T15:51:33;0.30;99.90
19172;DHT22;9718;52.200;21.052;2023-02-03T15:54:06;0.20;99.90
19172;DHT22;9718;52.200;21.052;2023-02-03T15:59:33;0.20;99.90
19172;DHT22;9718;52.200;21.052;2023-02-03T16:02:10;0.10;99.90
19172;DHT22;9718;52.200;21.052;2023-02-03T16:04:40;0.10;99.90
19172;DHT22;9718;52.200;21.052;2023-02-03T16:07:25;0.10;99.90
19172;DHT22;9718;52.200;21.052;2023-02-03T16:09:58;0.10;99.90
19172;DHT22;9718;52.200;21.052;2023-02-03T16:12:34;0.20;99.90
19172;DHT22;9718;52.200;21.052;2023-02-03T16:15:03;0.20;99.90
19172;DHT22;9718;52.200;21.052;2023-02-03T16:17:35;0.20;99.90
19172;DHT22;9718;52.200;21.052;2023-02-03T16:28:31;0.20;99.90
19172;DHT22;9718;52.200;21.052;2023-02-03T16:31:19;0.30;99.90
19172;DHT22;9718;52.200;21.052;2023-02-03T16:34:12;0.30;99.90
19172;DHT22;9718;52.200;21.052;2023-02-03T16:36:59;0.30;99.90
19172;DHT22;9718;52.200;21.052;2023-02-03T16:39:44;0.30;99.90
19172;DHT22;9718;52.200;21.052;2023-02-03T16:42:38;0.30;99.90
19172;DHT22;9718;52.200;21.052;2023-02-03T16:45:24;0.40;99.90
19172;DHT22;9718;52.200;21.052;2023-02-03T16:48:11;0.40;99.90
19172;DHT22;9718;52.200;21.052;2023-02-03T16:51:03;0.40;99.90
19172;DHT22;9718;52.200;21.052;2023-02-03T16:53:32;0.40;99.90
19172;DHT22;9718;52.200;21.052;2023-02-03T16:56:01;0.40;99.90
19172;DHT22;9718;52.200;21.052;2023-02-03T16:58:30;0.40;99.90
19172;DHT22;9718;52.200;21.052;2023-02-03T17:00:59;0.50;99.90
19172;DHT22;9718;52.200;21.052;2023-02-03T17:03:27;0.50;99.90
19172;DHT22;9718;52.200;21.052;2023-02-03T17:05:55;0.50;99.90
19172;DHT22;9718;52.200;21.052;2023-02-03T17:08:25;0.50;99.90
19172;DHT22;9718;52.200;21.052;2023-02-03T17:10:52;0.40;99.90
19172;DHT22;9718;52.200;21.052;2023-02-03T17:13:21;0.50;99.90
19172;DHT22;9718;52.200;21.052;2023-02-03T17:15:49;0.40;99.90
19172;DHT22;9718;52.200;21.052;2023-02-03T17:18:18;0.40;99.90
19172;DHT22;9718;52.200;21.052;2023-02-03T17:20:46;0.50;99.90
19172;DHT22;9718;52.200;21.052;2023-02-03T17:23:14;0.40;99.90
19172;DHT22;9718;52.200;21.052;2023-02-03T17:25:46;0.50;99.90
19172;DHT22;9718;52.200;21.052;2023-02-03T17:28:14;0.50;99.90
19172;DHT22;9718;52.200;21.052;2023-02-03T17:30:42;0.50;99.90
19172;DHT22;9718;52.200;21.052;2023-02-03T17:33:10;0.50;99.90
19172;DHT22;9718;52.200;21.052;2023-02-03T17:35:41;0.50;99.90
19172;DHT22;9718;52.200;21.052;2023-02-03T17:38:10;0.50;99.90
19172;DHT22;9718;52.200;21.052;2023-02-03T17:40:41;0.50;99.90
19172;DHT22;9718;52.200;21.052;2023-02-03T17:43:28;0.50;99.90
19172;DHT22;9718;52.200;21.052;2023-02-03T17:46:22;0.50;99.90
19172;DHT22;9718;52.200;21.052;2023-02-03T17:49:07;0.50;99.90
19172;DHT22;9718;52.200;21.052;2023-02-03T17:51:51;0.50;99.90
19172;DHT22;9718;52.200;21.052;2023-02-03T17:54:36;0.60;99.90
19172;DHT22;9718;52.200;21.052;2023-02-03T17:57:03;0.60;99.90
19172;DHT22;9718;52.200;21.052;2023-02-03T17:59:31;0.50;99.90
19172;DHT22;9718;52.200;21.052;2023-02-03T18:02:00;0.60;99.90
19172;DHT22;9718;52.200;21.052;2023-02-03T18:04:28;0.60;99.90
19172;DHT22;9718;52.200;21.052;2023-02-03T18:06:55;0.60;99.90
19172;DHT22;9718;52.200;21.052;2023-02-03T18:09:22;0.60;99.90
19172;DHT22;9718;52.200;21.052;2023-02-03T18:11:50;0.60;99.90
19172;DHT22;9718;52.200;21.052;2023-02-03T18:14:17;0.60;99.90
19172;DHT22;9718;52.200;21.052;2023-02-03T18:16:44;0.60;99.90
19172;DHT22;9718;52.200;21.052;2023-02-03T18:19:13;0.60;99.90
19172;DHT22;9718;52.200;21.052;2023-02-03T18:21:42;0.60;99.90
19172;DHT22;9718;52.200;21.052;2023-02-03T18:24:11;0.50;99.90
19172;DHT22;9718;52.200;21.052;2023-02-03T18:26:48;0.50;99.90
19172;DHT22;9718;52.200;21.052;2023-02-03T18:29:17;0.50;99.90
19172;DHT22;9718;52.200;21.052;2023-02-03T18:31:44;0.50;99.90
19172;DHT22;9718;52.200;21.052;2023-02-03T18:34:12;0.50;99.90
19172;DHT22;9718;52.200;21.052;2023-02-03T18:36:39;0.50;99.90
19172;DHT22;9718;52.200;21.052;2023-02-03T18:39:12;0.60;99.90
19172;DHT22;9718;52.200;21.052;2023-02-03T18:41:40;0.60;99.90
19172;DHT22;9718;52.200;21.052;2023-02-03T18:44:08;0.60;99.90
19172;DHT22;9718;52.200;21.052;2023-02-03T18:46:35;0.50;99.90
19172;DHT22;9718;52.200;21.052;2023-02-03T18:49:02;0.60;99.90
19172;DHT22;9718;52.200;21.052;2023-02-03T18:51:29;0.60;99.90
19172;DHT22;9718;52.200;21.052;2023-02-03T18:53:58;0.60;99.90
19172;DHT22;9718;52.200;21.052;2023-02-03T18:56:27;0.60;99.90
19172;DHT22;9718;52.200;21.052;2023-02-03T18:59:07;0.50;99.90
19172;DHT22;9718;52.200;21.052;2023-02-03T19:01:35;0.50;99.90